Time;durP1;ratioP1;P1;durP2;ratioP2;P2;SDS_P1;SDS_P2;PMS_P1;PMS_P2;Temp;Humidity;BMP_temperature;BMP_pressure;BME280_temperature;BME280_humidity;BME280_pressure;Samples;Min_cycle;Max_cycle;Signal;HPM_P1;HPM_P2
2023/01/27 00:02:16;;;;;;;18.17;3.17;;;;;;;6.19;100.00;102668.13;5027926;28;20044;-68
2023/01/27 00:04:42;;;;;;;31.67;4.05;;;;;;;6.22;100.00;102670.78;5027948;28;20076;-71
2023/01/27 00:07:07;;;;;;;23.98;3.80;;;;;;;6.00;100.00;102667.84;5025929;28;20051;-70
2023/01/27 00:09:32;;;;;;;17.35;2.17;;;;;;;6.09;100.00;102666.22;5026944;28;20411;-73
2023/01/27 00:14:42;;;;;;;23.70;2.25;;;;;;;6.35;100.00;102663.09;5027491;28;20552;-71
2023/01/27 00:17:07;;;;;;;21.17;2.78;;;;;;;6.25;100.00;102665.59;5028084;28;20116;-71
2023/01/27 00:19:32;;;;;;;20.80;2.75;;;;;;;6.11;100.00;102664.53;5027315;28;20030;-70
2023/01/27 00:24:42;;;;;;;12.98;3.15;;;;;;;6.19;100.00;102655.03;5030461;28;20048;-70
2023/01/27 00:27:08;;;;;;;12.80;1.95;;;;;;;6.22;100.00;102660.31;5012849;28;20475;-70
2023/01/27 00:29:38;;;;;;;19.98;2.15;;;;;;;6.35;100.00;102661.34;5029248;28;20096;-69
2023/01/27 00:34:48;;;;;;;16.15;2.05;;;;;;;6.39;100.00;102655.31;5031328;28;20044;-69
2023/01/27 00:37:14;;;;;;;18.15;2.33;;;;;;;6.24;100.00;102656.00;5013218;28;20452;-70
2023/01/27 00:39:39;;;;;;;16.70;3.00;;;;;;;6.43;100.00;102656.22;5028196;28;20039;-70
2023/01/27 00:42:05;;;;;;;17.00;2.40;;;;;;;6.30;100.00;102661.28;5029749;28;20021;-71
2023/01/27 00:44:30;;;;;;;10.07;1.77;;;;;;;6.31;100.00;102663.06;5029260;28;20645;-72
2023/01/27 00:46:56;;;;;;;12.93;1.90;;;;;;;6.19;100.00;102661.16;5029458;28;20372;-70
2023/01/27 00:49:21;;;;;;;15.93;2.30;;;;;;;6.18;100.00;102648.03;5029070;28;20128;-66
2023/01/27 00:51:47;;;;;;;14.32;2.53;;;;;;;6.07;100.00;102659.25;5028243;28;20052;-72
2023/01/27 00:54:13;;;;;;;18.85;2.53;;;;;;;5.96;100.00;102662.53;5032240;28;20104;-71
2023/01/27 00:56:38;;;;;;;31.08;3.13;;;;;;;6.11;100.00;102654.06;5031497;28;20036;-69
2023/01/27 00:59:04;;;;;;;20.33;2.63;;;;;;;6.02;100.00;102653.00;5030479;28;20033;-70
2023/01/27 01:01:29;;;;;;;20.48;2.30;;;;;;;5.94;100.00;102657.28;5028863;28;20034;-71
2023/01/27 01:03:57;;;;;;;15.50;3.17;;;;;;;5.91;100.00;102657.22;5030221;28;20541;-71
2023/01/27 01:06:23;;;;;;;12.82;2.25;;;;;;;5.93;100.00;102666.00;5013121;28;20022;-69
2023/01/27 01:08:50;;;;;;;16.52;2.72;;;;;;;6.01;100.00;102666.97;5031102;28;20106;-71
2023/01/27 01:11:17;;;;;;;12.63;2.72;;;;;;;5.99;100.00;102668.66;5031411;28;20033;-68
2023/01/27 01:13:42;;;;;;;12.27;2.45;;;;;;;5.93;100.00;102671.22;5030672;28;20523;-72
2023/01/27 01:16:14;;;;;;;20.52;2.80;;;;;;;5.85;100.00;102672.81;5031044;28;20026;-70
2023/01/27 01:18:40;;;;;;;8.20;2.75;;;;;;;5.75;100.00;102667.44;5029847;28;20468;-68
2023/01/27 01:21:05;;;;;;;13.13;2.30;;;;;;;5.76;100.00;102671.84;5031165;28;20057;-70
2023/01/27 01:23:32;;;;;;;16.23;2.33;;;;;;;5.78;100.00;102672.72;5030905;28;20460;-69
2023/01/27 01:25:58;;;;;;;20.10;3.53;;;;;;;5.81;100.00;102672.78;5012479;28;20080;-72
2023/01/27 01:28:24;;;;;;;15.98;2.45;;;;;;;5.81;100.00;102672.78;5031277;28;20412;-69
2023/01/27 01:30:50;;;;;;;16.52;2.50;;;;;;;5.85;100.00;102672.81;5013501;28;20094;-71
2023/01/27 01:33:15;;;;;;;13.85;2.47;;;;;;;5.69;100.00;102678.69;5030247;28;20025;-71
2023/01/27 01:35:41;;;;;;;11.07;3.03;;;;;;;5.72;100.00;102677.84;5030730;28;20280;-70
2023/01/27 01:38:07;;;;;;;12.82;3.30;;;;;;;5.76;100.00;102678.78;5030318;28;20040;-72
2023/01/27 01:40:32;;;;;;;11.55;2.40;;;;;;;5.64;100.00;102679.47;5028804;28;20436;-73
2023/01/27 01:43:00;;;;;;;15.32;2.67;;;;;;;5.52;100.00;102674.91;5030386;28;20037;-70
2023/01/27 01:45:32;;;;;;;17.95;3.05;;;;;;;5.46;100.00;102683.53;5030258;28;20029;-70
2023/01/27 01:48:19;;;;;;;8.45;2.65;;;;;;;5.43;100.00;102680.88;5030229;28;20483;-72
2023/01/27 01:50:49;;;;;;;7.03;2.38;;;;;;;5.57;100.00;102681.97;5030042;28;20029;-66
2023/01/27 01:53:15;;;;;;;7.45;2.42;;;;;;;5.44;100.00;102687.84;5030666;28;20037;-71
2023/01/27 01:55:41;;;;;;;11.15;2.67;;;;;;;5.36;100.00;102695.56;5029947;28;20484;-70
2023/01/27 01:58:07;;;;;;;15.90;3.47;;;;;;;5.23;100.00;102688.34;5030424;28;20034;-70
2023/01/27 02:00:33;;;;;;;11.43;2.97;;;;;;;5.28;100.00;102697.16;5029175;28;20155;-71
2023/01/27 02:03:00;;;;;;;10.20;3.17;;;;;;;5.18;100.00;102691.75;5029591;28;20029;-72
2023/01/27 02:05:32;;;;;;;7.82;2.90;;;;;;;5.28;100.00;102695.44;5028595;28;20176;-70
2023/01/27 02:08:08;;;;;;;12.43;2.80;;;;;;;5.16;100.00;102693.47;5012506;28;20039;-70
2023/01/27 02:10:34;;;;;;;9.68;3.45;;;;;;;5.26;100.00;102694.53;5010999;28;20026;-70
2023/01/27 02:12:59;;;;;;;12.02;2.92;;;;;;;5.26;100.00;102688.41;5030033;28;20032;-67
2023/01/27 02:15:25;;;;;;;16.00;3.47;;;;;;;5.18;100.00;102707.44;5030366;28;20036;-70
2023/01/27 02:17:50;;;;;;;9.55;2.97;;;;;;;5.20;100.00;102694.41;5030621;28;20635;-72
2023/01/27 02:20:45;;;;;;;7.70;3.20;;;;;;;5.18;100.00;102698.75;5012169;28;20076;-71
2023/01/27 02:23:28;;;;;;;11.68;3.22;;;;;;;4.98;100.00;102687.88;5011476;28;20128;-66
2023/01/27 02:26:12;;;;;;;8.02;2.95;;;;;;;5.25;100.00;102694.50;5011571;28;20033;-70
2023/01/27 02:28:37;;;;;;;7.88;3.38;;;;;;;5.42;100.00;102700.91;5029963;28;20050;-71
2023/01/27 02:31:03;;;;;;;10.20;3.55;;;;;;;5.18;100.00;102707.44;5025745;28;20022;-69
2023/01/27 02:33:28;;;;;;;6.72;3.72;;;;;;;5.10;100.00;102705.53;5009641;28;20108;-72
2023/01/27 02:35:57;;;;;;;13.38;3.55;;;;;;;5.08;100.00;102704.66;5009798;28;20024;-70
2023/01/27 02:38:23;;;;;;;8.50;3.45;;;;;;;5.05;100.00;102706.34;5012039;28;20029;-71
2023/01/27 02:40:51;;;;;;;16.02;4.38;;;;;;;5.08;100.00;102709.88;5027036;28;20120;-68
2023/01/27 02:43:16;;;;;;;6.20;3.85;;;;;;;5.02;100.00;102698.44;5012001;28;20030;-69
2023/01/27 02:45:45;;;;;;;9.35;3.50;;;;;;;4.89;100.00;102694.72;5029460;28;20044;-72
2023/01/27 02:48:10;;;;;;;18.23;3.67;;;;;;;5.05;100.00;102705.44;5029371;28;20021;-70
2023/01/27 02:50:35;;;;;;;12.55;4.57;;;;;;;4.98;100.00;102707.06;5011406;28;20025;-67
2023/01/27 02:53:01;;;;;;;9.52;4.15;;;;;;;5.15;100.00;102704.75;5028823;28;20029;-69
2023/01/27 02:55:26;;;;;;;10.85;5.15;;;;;;;5.13;100.00;102703.88;5008822;28;20088;-70
2023/01/27 02:57:51;;;;;;;21.08;6.43;;;;;;;4.97;100.00;102713.13;5008095;28;20026;-65
2023/01/27 03:00:17;;;;;;;13.52;5.30;;;;;;;4.77;100.00;102712.72;5010011;28;20120;-70
2023/01/27 03:02:42;;;;;;;15.43;6.00;;;;;;;4.69;100.00;102707.34;5009349;28;20049;-69
2023/01/27 03:05:08;;;;;;;14.60;6.05;;;;;;;4.89;100.00;102717.31;5009673;28;20024;-69
2023/01/27 03:07:33;;;;;;;14.43;5.55;;;;;;;4.98;100.00;102714.00;5009331;28;20472;-69
2023/01/27 03:09:58;;;;;;;13.02;6.65;;;;;;;4.59;100.00;102721.94;5009304;28;20101;-70
2023/01/27 03:12:24;;;;;;;16.73;6.38;;;;;;;4.68;100.00;102711.72;5013207;28;20026;-70
2023/01/27 03:20:21;;;;;;;12.85;6.43;;;;;;;4.77;100.00;102716.25;5014156;28;20052;-70
2023/01/27 03:22:47;;;;;;;19.25;6.80;;;;;;;4.98;100.00;102714.00;5028858;28;20025;-72
2023/01/27 03:25:12;;;;;;;13.68;7.20;;;;;;;4.84;100.00;102717.22;5028048;28;20112;-68
2023/01/27 03:27:38;;;;;;;16.70;6.75;;;;;;;4.72;100.00;102717.00;5028398;28;20437;-72
2023/01/27 03:30:04;;;;;;;16.73;7.47;;;;;;;4.64;100.00;102725.53;5029321;28;20022;-72
2023/01/27 03:32:30;;;;;;;13.35;7.43;;;;;;;4.93;100.00;102730.50;5028182;28;20025;-71
2023/01/27 03:35:00;;;;;;;12.73;8.50;;;;;;;4.74;100.00;102731.84;5028615;28;20409;-70
2023/01/27 03:48:32;;;;;;;12.75;7.90;;;;;;;4.57;100.00;102735.81;5013661;28;20120;-70
2023/01/27 03:50:58;;;;;;;16.55;8.10;;;;;;;4.54;100.00;102742.72;5027797;28;20108;-70
2023/01/27 03:53:23;;;;;;;16.13;8.20;;;;;;;4.63;100.00;102741.16;5027634;28;20065;-69
2023/01/27 03:55:49;;;;;;;14.82;8.48;;;;;;;4.59;100.00;102747.16;5010497;28;20057;-69
2023/01/27 03:58:25;;;;;;;12.65;8.35;;;;;;;4.63;100.00;102749.88;5028045;28;20064;-67
2023/01/27 04:00:52;;;;;;;16.95;8.18;;;;;;;4.71;100.00;102757.00;5029133;28;20029;-72
2023/01/27 04:08:48;;;;;;;17.17;8.32;;;;;;;4.53;100.00;102769.69;5028500;28;20437;-70
2023/01/27 04:14:00;;;;;;;20.50;9.60;;;;;;;4.77;100.00;102772.81;5027506;28;20562;-68
2023/01/27 04:16:27;;;;;;;18.40;10.07;;;;;;;4.67;100.00;102779.56;5009902;28;20030;-67
2023/01/27 04:18:53;;;;;;;15.32;9.20;;;;;;;4.64;100.00;102782.13;5027640;28;20096;-70
2023/01/27 04:21:18;;;;;;;15.45;10.05;;;;;;;4.57;100.00;102788.91;5027415;28;20128;-71
2023/01/27 04:23:44;;;;;;;15.90;10.20;;;;;;;4.75;100.00;102785.84;5027142;28;20373;-71
2023/01/27 04:26:09;;;;;;;16.15;9.35;;;;;;;4.67;100.00;102787.41;5028617;28;20043;-69
2023/01/27 04:28:35;;;;;;;13.45;9.75;;;;;;;4.57;100.00;102791.50;5034263;28;20033;-70
2023/01/27 04:31:00;;;;;;;13.38;8.77;;;;;;;4.38;100.00;102785.88;5034334;28;20021;-72
2023/01/27 04:33:25;;;;;;;14.65;8.18;;;;;;;4.28;100.00;102795.22;5035471;28;20022;-72
2023/01/27 04:35:51;;;;;;;12.10;7.50;;;;;;;4.35;100.00;102790.13;5037388;28;20021;-69
2023/01/27 04:38:16;;;;;;;11.82;7.45;;;;;;;4.52;100.00;102796.63;5038502;28;20041;-70
2023/01/27 04:40:42;;;;;;;10.60;6.78;;;;;;;4.52;100.00;102791.41;5036942;28;20072;-74
2023/01/27 04:43:07;;;;;;;10.20;6.28;;;;;;;4.53;100.00;102802.75;5036963;28;20108;-71
2023/01/27 04:45:32;;;;;;;10.25;6.47;;;;;;;4.53;100.00;102801.03;5037427;28;20032;-73
2023/01/27 04:47:58;;;;;;;9.07;6.55;;;;;;;4.48;100.00;102807.84;5039258;28;20518;-71
2023/01/27 04:50:23;;;;;;;7.75;6.20;;;;;;;4.47;100.00;102806.09;5037626;28;20495;-71
2023/01/27 04:52:48;;;;;;;9.90;6.00;;;;;;;4.65;100.00;102800.44;5038364;28;20454;-69
2023/01/27 04:55:14;;;;;;;8.35;5.63;;;;;;;4.54;100.00;102797.56;5036365;28;20039;-69
2023/01/27 04:57:39;;;;;;;6.20;4.90;;;;;;;4.51;100.00;102794.88;5037424;28;20061;-71
2023/01/27 05:00:05;;;;;;;7.65;4.80;;;;;;;4.61;100.00;102802.94;5037756;28;20360;-73
2023/01/27 05:02:31;;;;;;;5.45;4.40;;;;;;;4.74;100.00;102802.34;5037818;28;20051;-69
2023/01/27 05:04:57;;;;;;;6.50;4.45;;;;;;;4.61;100.00;102802.94;5037111;28;20360;-72
2023/01/27 05:07:22;;;;;;;9.70;4.22;;;;;;;4.61;100.00;102797.72;5036854;28;20033;-68
2023/01/27 05:09:48;;;;;;;8.15;4.55;;;;;;;4.76;100.00;102800.66;5034941;28;20396;-72
2023/01/27 05:12:13;;;;;;;6.20;4.00;;;;;;;4.78;100.00;102804.19;5034438;28;20404;-70
2023/01/27 05:14:39;;;;;;;4.18;3.78;;;;;;;4.86;100.00;102808.69;5033938;28;20078;-72
2023/01/27 05:17:04;;;;;;;4.40;3.60;;;;;;;4.95;100.00;102803.66;5023637;28;20049;-71
2023/01/27 05:19:29;;;;;;;6.32;3.80;;;;;;;4.87;100.00;102808.72;5030504;28;20119;-69
2023/01/27 05:21:55;;;;;;;5.38;3.65;;;;;;;4.61;100.00;102814.22;5016042;28;20071;-68
2023/01/27 05:24:20;;;;;;;4.38;3.70;;;;;;;4.76;100.00;102813.69;5032568;28;20084;-71
2023/01/27 05:26:45;;;;;;;5.80;3.72;;;;;;;4.71;100.00;102810.13;5030483;28;20535;-72
2023/01/27 05:29:11;;;;;;;3.75;3.13;;;;;;;4.72;100.00;102813.63;5033940;28;20036;-71
2023/01/27 05:31:36;;;;;;;4.88;3.72;;;;;;;4.69;100.00;102814.41;5033522;28;20052;-69
2023/01/27 05:34:01;;;;;;;5.00;3.60;;;;;;;4.73;100.00;102823.22;5000201;28;20127;-71
2023/01/27 05:36:28;;;;;;;6.45;3.42;;;;;;;4.89;100.00;102822.72;5015854;28;20033;-71
2023/01/27 05:38:54;;;;;;;4.05;3.58;;;;;;;4.89;100.00;102829.66;5029808;28;20118;-71
2023/01/27 05:41:20;;;;;;;4.22;3.50;;;;;;;4.75;100.00;102827.63;5013410;28;20455;-70
2023/01/27 05:43:49;;;;;;;3.70;3.00;;;;;;;4.83;100.00;102826.91;5009148;28;20025;-72
2023/01/27 05:46:16;;;;;;;;;;;;;;;4.95;100.00;102826.28;5023799;28;20445;-70
2023/01/27 05:48:50;;;;;;;3.40;3.10;;;;;;;4.78;100.00;102827.69;5026854;28;19944;-72
2023/01/27 05:51:17;;;;;;;3.60;3.20;;;;;;;4.86;100.00;102819.13;5013495;28;20022;-70
2023/01/27 05:53:43;;;;;;;3.22;2.92;;;;;;;4.94;100.00;102825.44;5030532;28;20055;-72
2023/01/27 05:56:10;;;;;;;3.72;3.22;;;;;;;4.89;100.00;102820.09;5030208;28;20075;-70
2023/01/27 05:58:36;;;;;;;4.25;3.05;;;;;;;4.84;100.00;102831.31;5031917;28;20341;-70
2023/01/27 06:01:09;;;;;;;3.53;2.78;;;;;;;4.77;100.00;102818.09;5030292;28;20037;-69
2023/01/27 06:03:36;;;;;;;3.47;2.80;;;;;;;4.76;100.00;102824.16;5030754;28;20026;-69
2023/01/27 06:06:02;;;;;;;3.28;2.90;;;;;;;4.90;100.00;102831.41;5030689;28;20041;-73
2023/01/27 06:08:27;;;;;;;3.03;2.55;;;;;;;4.86;100.00;102829.59;5030812;28;20030;-70
2023/01/27 06:10:53;;;;;;;3.22;2.78;;;;;;;4.74;100.00;102828.47;5030598;28;20025;-71
2023/01/27 06:13:20;;;;;;;12.75;3.10;;;;;;;4.97;100.00;102822.84;5031918;28;20079;-70
2023/01/27 06:15:46;;;;;;;3.55;3.25;;;;;;;5.02;100.00;102826.47;5030874;28;20040;-71
2023/01/27 06:18:13;;;;;;;3.58;2.85;;;;;;;4.93;100.00;102828.88;5029343;28;20075;-71
2023/01/27 06:20:39;;;;;;;4.30;2.70;;;;;;;4.88;100.00;102833.13;5029597;28;20065;-74
2023/01/27 06:23:06;;;;;;;2.88;2.65;;;;;;;5.01;100.00;102837.78;5012516;28;20029;-74
2023/01/27 06:25:35;;;;;;;2.80;2.60;;;;;;;4.98;100.00;102837.72;5029229;28;20028;-73
2023/01/27 06:28:00;;;;;;;4.30;2.53;;;;;;;4.99;100.00;102841.19;5029920;28;20045;-71
2023/01/27 06:30:26;;;;;;;5.60;2.70;;;;;;;5.06;100.00;102849.19;5029927;28;20371;-71
2023/01/27 06:32:51;;;;;;;2.58;2.28;;;;;;;4.88;100.00;102849.66;5030026;28;20052;-69
2023/01/27 06:35:16;;;;;;;4.75;2.53;;;;;;;4.85;100.00;102851.34;5029797;28;20088;-71
2023/01/27 06:37:42;;;;;;;5.18;2.40;;;;;;;4.75;100.00;102853.75;5029692;28;20033;-71
2023/01/27 06:40:08;;;;;;;2.38;2.00;;;;;;;4.48;100.00;102856.59;5030288;28;20036;-72
2023/01/27 06:42:34;;;;;;;3.78;1.83;;;;;;;4.59;100.00;102859.44;5029565;28;20040;-69
2023/01/27 06:44:59;;;;;;;2.13;1.92;;;;;;;4.74;100.00;102861.53;5030037;28;20021;-70
2023/01/27 06:47:24;;;;;;;5.65;2.22;;;;;;;4.61;100.00;102863.00;5029130;28;20036;-71
2023/01/27 06:49:50;;;;;;;3.78;2.10;;;;;;;4.71;100.00;102870.19;5029806;28;20368;-70
2023/01/27 06:52:15;;;;;;;4.32;2.38;;;;;;;4.77;100.00;102870.34;5028855;28;20025;-68
2023/01/27 06:54:40;;;;;;;3.30;2.13;;;;;;;4.64;100.00;102865.69;5028990;28;20611;-70
2023/01/27 06:57:08;;;;;;;2.30;2.10;;;;;;;4.74;100.00;102858.94;5029111;28;20021;-71
2023/01/27 06:59:33;;;;;;;2.85;2.28;;;;;;;4.68;100.00;102867.50;5028782;28;20026;-71
2023/01/27 07:01:59;;;;;;;4.32;2.47;;;;;;;4.68;100.00;102867.50;5029325;28;20029;-72
2023/01/27 07:04:24;;;;;;;3.08;2.13;;;;;;;4.64;100.00;102870.91;5028715;28;20029;-69
2023/01/27 07:06:49;;;;;;;4.93;2.65;;;;;;;4.65;100.00;102864.81;5031264;28;20053;-71
2023/01/27 07:09:15;;;;;;;3.25;2.38;;;;;;;4.82;100.00;102870.44;5030374;28;20052;-71
2023/01/27 07:11:40;;;;;;;4.75;2.17;;;;;;;4.90;100.00;102868.00;5030003;28;20104;-70
2023/01/27 07:14:05;;;;;;;3.92;2.10;;;;;;;4.97;100.00;102866.41;5028594;28;20087;-71
2023/01/27 07:16:31;;;;;;;4.63;2.45;;;;;;;5.01;100.00;102874.34;5028567;28;20079;-69
2023/01/27 07:18:57;;;;;;;2.83;2.15;;;;;;;5.03;100.00;102870.03;5027327;28;20490;-68
2023/01/27 07:21:24;;;;;;;5.53;2.40;;;;;;;4.97;100.00;102880.34;5028506;28;20069;-70
2023/01/27 07:23:49;;;;;;;5.20;2.30;;;;;;;4.96;100.00;102873.34;5028570;28;20021;-67
2023/01/27 07:26:14;;;;;;;5.03;2.00;;;;;;;4.92;100.00;102872.44;5028801;28;20403;-71
2023/01/27 07:28:40;;;;;;;2.97;2.25;;;;;;;4.49;100.00;102877.50;5029242;28;20037;-70
2023/01/27 07:31:05;;;;;;;6.28;2.20;;;;;;;4.31;100.00;102877.94;5029113;28;20672;-69
2023/01/27 07:33:30;;;;;;;4.20;2.15;;;;;;;4.42;100.00;102878.19;5027456;28;20514;-67
2023/01/27 07:35:56;;;;;;;4.28;2.30;;;;;;;4.32;100.00;102892.75;5028266;28;20095;-70
2023/01/27 07:38:21;;;;;;;2.78;2.03;;;;;;;4.50;100.00;102891.44;5008764;28;20128;-67
2023/01/27 07:40:47;;;;;;;2.58;2.00;;;;;;;4.39;100.00;102906.81;5027915;28;20036;-70
2023/01/27 07:43:12;;;;;;;2.30;2.10;;;;;;;4.35;100.00;102911.09;5027781;28;20558;-70
2023/01/27 07:45:38;;;;;;;5.43;2.03;;;;;;;4.38;100.00;102911.19;5026541;28;20468;-70
2023/01/27 07:48:05;;;;;;;4.35;2.28;;;;;;;4.59;100.00;102912.56;5010567;28;20021;-72
2023/01/27 07:50:31;;;;;;;5.03;2.17;;;;;;;4.50;100.00;102913.22;5012379;28;20032;-74
2023/01/27 07:53:01;;;;;;;3.58;2.45;;;;;;;4.67;100.00;102907.53;4993914;28;20021;-70
2023/01/27 07:55:26;;;;;;;3.58;3.15;;;;;;;4.49;100.00;102911.44;5024448;28;20570;-72
2023/01/27 07:57:52;;;;;;;3.40;2.30;;;;;;;4.49;100.00;102915.78;5027223;28;20025;-70
2023/01/27 08:00:20;;;;;;;5.13;2.53;;;;;;;4.35;100.00;102916.31;5026955;28;20044;-71
2023/01/27 08:02:50;;;;;;;5.60;2.30;;;;;;;4.26;100.00;102921.28;5026485;28;20056;-71
2023/01/27 08:05:15;;;;;;;1.85;1.65;;;;;;;4.34;100.00;102926.72;5027048;28;20472;-70
2023/01/27 08:07:40;;;;;;;4.13;1.70;;;;;;;4.29;100.00;102932.72;5026900;28;20029;-73
2023/01/27 08:10:06;;;;;;;5.88;1.73;;;;;;;4.32;100.00;102931.91;5012658;28;20030;-71
2023/01/27 08:12:32;;;;;;;4.10;2.20;;;;;;;4.15;100.00;102926.22;5008806;28;20042;-67
2023/01/27 08:14:57;;;;;;;6.30;2.10;;;;;;;4.19;100.00;102927.19;4995085;28;20524;-68
2023/01/27 08:17:22;;;;;;;8.40;3.13;;;;;;;4.19;100.00;102925.47;5020397;28;20419;-69
2023/01/27 08:19:50;;;;;;;1.65;1.55;;;;;;;4.08;100.00;102932.13;5017577;28;20018;-68
2023/01/27 08:22:19;;;;;;;1.92;1.83;;;;;;;4.09;100.00;102939.13;5018997;28;20051;-71
2023/01/27 08:24:45;;;;;;;5.40;2.45;;;;;;;4.11;100.00;102938.31;5017665;28;20472;-68
2023/01/27 08:27:10;;;;;;;2.67;1.60;;;;;;;4.25;100.00;102936.06;5007726;28;20419;-70
2023/01/27 08:29:36;;;;;;;3.13;1.58;;;;;;;4.30;100.00;102931.84;5024175;28;20030;-68
2023/01/27 08:32:01;;;;;;;2.33;1.27;;;;;;;4.47;100.00;102931.41;5027570;28;20105;-69
2023/01/27 08:34:26;;;;;;;6.85;1.63;;;;;;;4.51;100.00;102942.81;5025925;28;20503;-69
2023/01/27 08:36:52;;;;;;;4.40;1.42;;;;;;;4.41;100.00;102939.97;5027359;28;20068;-68
2023/01/27 08:39:17;;;;;;;3.70;1.73;;;;;;;4.37;100.00;102943.31;5024048;28;20060;-71
2023/01/27 08:41:43;;;;;;;5.72;2.05;;;;;;;4.22;100.00;102942.94;5021851;28;20018;-71
2023/01/27 08:44:08;;;;;;;7.00;1.55;;;;;;;4.39;100.00;102945.97;5026521;28;20037;-72
2023/01/27 08:46:33;;;;;;;3.00;1.50;;;;;;;4.50;100.00;102943.66;5027656;28;20048;-72
2023/01/27 08:48:59;;;;;;;2.70;1.95;;;;;;;4.34;100.00;102945.00;5027922;28;20033;-73
2023/01/27 08:51:24;;;;;;;2.83;1.65;;;;;;;4.37;100.00;102950.28;5031340;28;20037;-72
2023/01/27 08:53:49;;;;;;;4.95;1.80;;;;;;;4.28;100.00;102943.13;5029448;28;20543;-67
2023/01/27 08:56:15;;;;;;;4.22;1.40;;;;;;;4.41;100.00;102946.91;5008624;28;20036;-71
2023/01/27 08:58:41;;;;;;;5.05;2.13;;;;;;;4.53;100.00;102942.03;5029127;28;20036;-73
2023/01/27 09:01:07;;;;;;;5.30;1.77;;;;;;;4.47;100.00;102960.13;5032009;28;20025;-72
2023/01/27 09:03:33;;;;;;;5.13;1.52;;;;;;;4.65;100.00;102951.00;5030723;28;20179;-72
2023/01/27 09:05:59;;;;;;;6.47;1.58;;;;;;;4.62;100.00;102954.44;5029200;28;20026;-65
2023/01/27 09:08:25;;;;;;;4.63;1.92;;;;;;;4.63;100.00;102950.06;5027090;28;20113;-71
2023/01/27 09:10:50;;;;;;;6.00;1.50;;;;;;;4.83;100.00;102957.50;5027336;28;20053;-72
2023/01/27 09:13:17;;;;;;;3.35;1.60;;;;;;;4.83;100.00;102947.06;5027874;28;20044;-69
2023/01/27 09:15:42;;;;;;;4.47;1.63;;;;;;;4.93;100.00;102951.66;5029927;28;20882;-72
2023/01/27 09:18:08;;;;;;;4.72;1.60;;;;;;;5.00;100.00;102948.34;5029146;28;20117;-68
2023/01/27 09:20:36;;;;;;;3.58;1.90;;;;;;;5.13;100.00;102953.88;5027514;28;20057;-71
2023/01/27 09:23:02;;;;;;;2.95;1.50;;;;;;;5.41;100.00;102950.16;5029139;28;20037;-72
2023/01/27 09:25:28;;;;;;;3.38;1.63;;;;;;;5.31;100.00;102953.41;5029712;28;20046;-69
2023/01/27 09:27:57;;;;;;;5.85;1.77;;;;;;;5.06;100.00;102952.84;5030412;28;20045;-69
2023/01/27 09:30:23;;;;;;;4.78;1.83;;;;;;;5.06;100.00;102953.72;5028996;28;20029;-67
2023/01/27 09:32:49;;;;;;;16.38;1.95;;;;;;;4.75;100.00;102957.31;5030461;28;20052;-71
2023/01/27 09:35:15;;;;;;;3.85;1.38;;;;;;;4.77;100.00;102953.94;5029231;28;20061;-69
2023/01/27 09:37:53;;;;;;;3.75;2.22;;;;;;;4.67;100.00;102958.00;5026007;28;20523;-71
2023/01/27 09:40:29;;;;;;;6.13;1.75;;;;;;;4.46;100.00;102961.00;5021188;28;20047;-71
2023/01/27 09:43:13;;;;;;;3.22;1.35;;;;;;;4.28;100.00;102964.84;5016669;28;20026;-71
2023/01/27 09:46:00;;;;;;;2.65;1.75;;;;;;;4.50;100.00;102964.53;4997127;28;20965;-72
2023/01/27 09:48:57;;;;;;;7.95;1.40;;;;;;;4.46;100.00;102958.38;5014952;28;20375;-69
2023/01/27 09:51:34;;;;;;;6.20;1.67;;;;;;;4.46;100.00;102965.31;4989639;28;20616;-68
2023/01/27 09:54:03;;;;;;;7.20;1.90;;;;;;;4.48;100.00;102958.41;5026666;28;20372;-71
2023/01/27 09:56:43;;;;;;;3.75;1.70;;;;;;;4.47;100.00;102961.84;5012504;28;20530;-70
2023/01/27 09:59:27;;;;;;;1.60;1.50;;;;;;;4.42;100.00;102954.78;5027609;28;20049;-66
2023/01/27 10:02:23;;;;;;;15.30;2.92;;;;;;;4.57;100.00;102957.78;5029263;28;20041;-70
2023/01/27 10:05:06;;;;;;;2.05;1.60;;;;;;;4.64;100.00;102957.94;5030428;28;20025;-69
2023/01/27 10:07:50;;;;;;;3.03;1.70;;;;;;;4.66;100.00;102968.41;5029937;28;20080;-68
2023/01/27 10:10:25;;;;;;;3.13;1.67;;;;;;;4.66;100.00;102965.81;5012485;28;20025;-69
2023/01/27 10:13:13;;;;;;;5.25;1.90;;;;;;;4.66;100.00;102955.38;5030868;28;20120;-69
2023/01/27 10:15:46;;;;;;;2.88;1.75;;;;;;;4.84;100.00;102951.47;5029652;28;20029;-69
2023/01/27 10:18:30;;;;;;;6.55;1.67;;;;;;;4.73;100.00;102953.81;5030898;28;20022;-67
2023/01/27 10:21:05;;;;;;;2.80;1.70;;;;;;;4.66;100.00;102969.31;5030089;28;20434;-69
2023/01/27 10:23:37;;;;;;;4.13;1.70;;;;;;;4.76;100.00;102962.59;5008101;28;20030;-69
2023/01/27 10:26:02;;;;;;;4.10;1.60;;;;;;;4.42;100.00;102956.50;5024690;28;20029;-69
2023/01/27 10:28:29;;;;;;;1.55;1.45;;;;;;;4.48;100.00;102966.25;5028252;28;20029;-69
2023/01/27 10:31:00;;;;;;;4.18;1.83;;;;;;;4.55;100.00;102963.81;5029449;28;20037;-69
2023/01/27 10:33:31;;;;;;;1.73;1.63;;;;;;;4.80;100.00;102966.16;5012394;28;20132;-70
2023/01/27 10:36:05;;;;;;;6.40;1.70;;;;;;;5.11;100.00;102960.78;5030798;28;20025;-69
2023/01/27 10:38:37;;;;;;;3.20;1.52;;;;;;;4.96;100.00;102959.59;5011587;28;20029;-68
2023/01/27 10:41:02;;;;;;;1.65;1.27;;;;;;;4.89;100.00;102968.13;5030478;28;20044;-68
2023/01/27 10:43:33;;;;;;;3.97;1.55;;;;;;;4.77;100.00;102968.69;5028864;28;20021;-71
2023/01/27 10:46:08;;;;;;;1.17;1.10;;;;;;;4.79;100.00;102962.66;5029395;28;20384;-70
2023/01/27 10:48:48;;;;;;;4.13;1.55;;;;;;;4.91;100.00;102961.22;5027280;28;20036;-70
2023/01/27 10:51:23;;;;;;;1.75;1.65;;;;;;;5.04;100.00;102955.44;5025772;28;20017;-68
2023/01/27 10:54:09;;;;;;;2.08;1.33;;;;;;;4.91;100.00;102953.38;5028048;28;20025;-71
2023/01/27 10:56:49;;;;;;;1.23;1.10;;;;;;;5.09;100.00;102952.03;5028405;28;20029;-70
2023/01/27 10:59:27;;;;;;;1.52;1.30;;;;;;;4.95;100.00;102944.75;5026651;28;20171;-68
2023/01/27 11:01:55;;;;;;;2.15;1.10;;;;;;;4.99;100.00;102949.19;5027518;28;20056;-69
2023/01/27 11:04:37;;;;;;;1.58;1.10;;;;;;;5.02;100.00;102957.13;5012231;28;20024;-71
2023/01/27 11:07:04;;;;;;;3.75;1.00;;;;;;;4.97;100.00;102948.28;5027495;28;20120;-70
2023/01/27 11:09:40;;;;;;;1.88;0.90;;;;;;;5.35;100.00;102949.13;5010888;28;20029;-68
2023/01/27 11:12:11;;;;;;;5.18;1.05;;;;;;;5.12;100.00;102946.88;5010702;28;20025;-69
2023/01/27 11:14:44;;;;;;;1.95;1.17;;;;;;;5.16;100.00;102946.09;5027925;28;20018;-68
2023/01/27 11:17:21;;;;;;;1.27;1.13;;;;;;;5.24;100.00;102954.13;5025429;28;20017;-69
2023/01/27 11:19:57;;;;;;;7.90;3.15;;;;;;;5.52;100.00;102947.78;5011825;28;20029;-71
2023/01/27 11:22:28;;;;;;;2.90;1.27;;;;;;;5.39;100.00;102948.34;5011189;28;20022;-70
2023/01/27 11:25:16;;;;;;;1.95;1.30;;;;;;;5.42;100.00;102951.03;5025392;28;20037;-71
2023/01/27 11:27:52;;;;;;;2.83;1.20;;;;;;;5.75;100.00;102949.97;5025666;28;20072;-71
2023/01/27 11:30:23;;;;;;;2.35;1.38;;;;;;;5.73;100.00;102945.56;5028005;28;20048;-70
2023/01/27 11:33:15;;;;;;;1.92;1.20;;;;;;;5.92;100.00;102952.03;5010794;28;20105;-72
2023/01/27 11:35:40;;;;;;;3.95;1.67;;;;;;;5.98;100.00;102951.28;5026929;28;20034;-70
2023/01/27 11:38:12;;;;;;;7.82;1.83;;;;;;;6.29;100.00;102937.06;5028515;28;20053;-71
2023/01/27 11:40:40;;;;;;;6.63;2.00;;;;;;;6.23;100.00;102947.41;5011140;28;20030;-70
2023/01/27 11:43:05;;;;;;;5.00;1.30;;;;;;;6.06;100.00;102939.28;5027967;28;20059;-68
2023/01/27 11:45:34;;;;;;;1.67;0.88;;;;;;;6.09;100.00;102946.28;5027095;28;20468;-70
2023/01/27 11:48:00;;;;;;;1.48;0.98;;;;;;;6.10;100.00;102950.66;5024353;28;20072;-70
2023/01/27 11:50:29;;;;;;;2.10;0.85;;;;;;;5.97;100.00;102937.34;5028888;28;20021;-71
2023/01/27 11:53:03;;;;;;;3.15;1.27;;;;;;;5.82;100.00;102935.28;5009222;28;20400;-69
2023/01/27 11:55:35;;;;;;;2.10;0.80;;;;;;;5.88;100.00;102942.38;5011236;28;20104;-69
2023/01/27 11:58:14;;;;;;;2.20;1.08;;;;;;;5.85;100.00;102937.97;5027307;28;20025;-68
2023/01/27 12:00:44;;;;;;;0.70;0.70;;;;;;;5.83;100.00;102931.81;5026026;28;20029;-68